sensor_id;sensor_type;location;lat;lon;timestamp;P1;durP1;ratioP1;P2;durP2;ratioP2
17604;SDS011;8921;50.964;6.800;2023-04-25T00:00:19;18.20;;;5.80;;
17604;SDS011;8921;50.964;6.800;2023-04-25T00:02:47;14.43;;;6.40;;
17604;SDS011;8921;50.964;6.800;2023-04-25T00:05:16;13.27;;;7.13;;
17604;SDS011;8921;50.964;6.800;2023-04-25T00:07:44;11.43;;;5.63;;
17604;SDS011;8921;50.964;6.800;2023-04-25T00:10:12;15.63;;;6.17;;
17604;SDS011;8921;50.964;6.800;2023-04-25T00:12:41;18.13;;;6.80;;
17604;SDS011;8921;50.964;6.800;2023-04-25T00:15:09;17.13;;;5.27;;
17604;SDS011;8921;50.964;6.800;2023-04-25T00:17:37;21.10;;;7.67;;
17604;SDS011;8921;50.964;6.800;2023-04-25T00:20:06;16.37;;;7.80;;
17604;SDS011;8921;50.964;6.800;2023-04-25T00:22:34;15.63;;;6.47;;
17604;SDS011;8921;50.964;6.800;2023-04-25T00:25:04;14.20;;;6.60;;
17604;SDS011;8921;50.964;6.800;2023-04-25T00:27:31;17.37;;;6.53;;
17604;SDS011;8921;50.964;6.800;2023-04-25T00:29:59;17.43;;;6.80;;
17604;SDS011;8921;50.964;6.800;2023-04-25T00:32:28;15.10;;;6.67;;
17604;SDS011;8921;50.964;6.800;2023-04-25T00:34:56;13.60;;;6.50;;
17604;SDS011;8921;50.964;6.800;2023-04-25T00:37:24;15.23;;;6.83;;
17604;SDS011;8921;50.964;6.800;2023-04-25T00:39:52;23.30;;;6.73;;
17604;SDS011;8921;50.964;6.800;2023-04-25T00:42:21;20.10;;;6.70;;
17604;SDS011;8921;50.964;6.800;2023-04-25T00:44:49;17.33;;;6.47;;
17604;SDS011;8921;50.964;6.800;2023-04-25T00:47:17;16.43;;;6.60;;
17604;SDS011;8921;50.964;6.800;2023-04-25T00:49:46;13.20;;;6.10;;
17604;SDS011;8921;50.964;6.800;2023-04-25T00:52:14;16.60;;;6.57;;
17604;SDS011;8921;50.964;6.800;2023-04-25T00:54:42;21.83;;;6.80;;
17604;SDS011;8921;50.964;6.800;2023-04-25T00:57:11;19.70;;;7.60;;
17604;SDS011;8921;50.964;6.800;2023-04-25T00:59:39;13.03;;;5.90;;
17604;SDS011;8921;50.964;6.800;2023-04-25T01:02:07;16.60;;;6.17;;
17604;SDS011;8921;50.964;6.800;2023-04-25T01:04:35;15.90;;;6.37;;
17604;SDS011;8921;50.964;6.800;2023-04-25T01:07:04;17.90;;;6.00;;
17604;SDS011;8921;50.964;6.800;2023-04-25T01:09:32;17.40;;;7.80;;
17604;SDS011;8921;50.964;6.800;2023-04-25T01:12:00;22.73;;;7.17;;
17604;SDS011;8921;50.964;6.800;2023-04-25T01:14:29;13.07;;;6.80;;
17604;SDS011;8921;50.964;6.800;2023-04-25T01:16:57;17.23;;;6.93;;
17604;SDS011;8921;50.964;6.800;2023-04-25T01:19:25;19.87;;;6.93;;
17604;SDS011;8921;50.964;6.800;2023-04-25T01:21:53;18.47;;;7.80;;
17604;SDS011;8921;50.964;6.800;2023-04-25T01:24:22;13.60;;;6.10;;
17604;SDS011;8921;50.964;6.800;2023-04-25T01:26:50;12.67;;;5.63;;
17604;SDS011;8921;50.964;6.800;2023-04-25T01:29:19;16.60;;;7.37;;
17604;SDS011;8921;50.964;6.800;2023-04-25T01:31:47;12.13;;;6.50;;
17604;SDS011;8921;50.964;6.800;2023-04-25T01:34:15;18.23;;;8.37;;
17604;SDS011;8921;50.964;6.800;2023-04-25T01:36:43;17.17;;;7.20;;
17604;SDS011;8921;50.964;6.800;2023-04-25T01:39:11;17.30;;;8.10;;
17604;SDS011;8921;50.964;6.800;2023-04-25T01:41:40;16.67;;;7.33;;
17604;SDS011;8921;50.964;6.800;2023-04-25T01:44:08;13.53;;;6.33;;
17604;SDS011;8921;50.964;6.800;2023-04-25T01:46:36;20.57;;;8.33;;
17604;SDS011;8921;50.964;6.800;2023-04-25T01:49:05;24.37;;;8.23;;
17604;SDS011;8921;50.964;6.800;2023-04-25T01:51:33;15.90;;;7.67;;
17604;SDS011;8921;50.964;6.800;2023-04-25T01:54:01;13.90;;;7.20;;
17604;SDS011;8921;50.964;6.800;2023-04-25T01:56:30;17.43;;;7.23;;
17604;SDS011;8921;50.964;6.800;2023-04-25T01:58:58;21.60;;;7.27;;
17604;SDS011;8921;50.964;6.800;2023-04-25T02:01:26;23.33;;;9.80;;
17604;SDS011;8921;50.964;6.800;2023-04-25T02:03:54;19.10;;;7.80;;
17604;SDS011;8921;50.964;6.800;2023-04-25T02:06:23;26.63;;;7.40;;
17604;SDS011;8921;50.964;6.800;2023-04-25T02:08:51;12.97;;;6.13;;
17604;SDS011;8921;50.964;6.800;2023-04-25T02:11:19;18.07;;;6.97;;
17604;SDS011;8921;50.964;6.800;2023-04-25T02:13:48;19.60;;;7.77;;
17604;SDS011;8921;50.964;6.800;2023-04-25T02:16:16;17.90;;;6.37;;
17604;SDS011;8921;50.964;6.800;2023-04-25T02:18:44;16.37;;;6.13;;
17604;SDS011;8921;50.964;6.800;2023-04-25T02:21:13;17.07;;;6.70;;
17604;SDS011;8921;50.964;6.800;2023-04-25T02:23:41;15.27;;;5.60;;
17604;SDS011;8921;50.964;6.800;2023-04-25T02:26:09;16.40;;;5.77;;
17604;SDS011;8921;50.964;6.800;2023-04-25T02:28:38;13.70;;;6.50;;
17604;SDS011;8921;50.964;6.800;2023-04-25T02:31:06;11.77;;;5.50;;
17604;SDS011;8921;50.964;6.800;2023-04-25T02:33:34;17.63;;;5.87;;
17604;SDS011;8921;50.964;6.800;2023-04-25T02:36:03;21.07;;;7.30;;
17604;SDS011;8921;50.964;6.800;2023-04-25T02:38:31;14.50;;;6.40;;
17604;SDS011;8921;50.964;6.800;2023-04-25T02:40:59;14.70;;;6.50;;
17604;SDS011;8921;50.964;6.800;2023-04-25T02:43:28;15.07;;;6.03;;
17604;SDS011;8921;50.964;6.800;2023-04-25T02:45:56;10.37;;;6.03;;
17604;SDS011;8921;50.964;6.800;2023-04-25T02:48:24;17.10;;;6.37;;
17604;SDS011;8921;50.964;6.800;2023-04-25T02:50:53;14.23;;;6.63;;
17604;SDS011;8921;50.964;6.800;2023-04-25T02:53:21;14.57;;;6.77;;
17604;SDS011;8921;50.964;6.800;2023-04-25T02:55:49;16.03;;;6.60;;
17604;SDS011;8921;50.964;6.800;2023-04-25T02:58:18;16.43;;;6.80;;
17604;SDS011;8921;50.964;6.800;2023-04-25T03:00:46;19.67;;;7.83;;
17604;SDS011;8921;50.964;6.800;2023-04-25T03:03:14;21.70;;;7.37;;
17604;SDS011;8921;50.964;6.800;2023-04-25T03:05:43;19.63;;;6.20;;
17604;SDS011;8921;50.964;6.800;2023-04-25T03:08:11;10.97;;;5.20;;
17604;SDS011;8921;50.964;6.800;2023-04-25T03:10:39;15.50;;;6.40;;
17604;SDS011;8921;50.964;6.800;2023-04-25T03:13:07;15.00;;;5.97;;
17604;SDS011;8921;50.964;6.800;2023-04-25T03:15:36;13.90;;;5.70;;
17604;SDS011;8921;50.964;6.800;2023-04-25T03:18:04;13.10;;;6.37;;
17604;SDS011;8921;50.964;6.800;2023-04-25T03:20:32;11.63;;;6.47;;
17604;SDS011;8921;50.964;6.800;2023-04-25T03:23:01;11.97;;;6.70;;
17604;SDS011;8921;50.964;6.800;2023-04-25T03:25:29;18.30;;;6.33;;
17604;SDS011;8921;50.964;6.800;2023-04-25T03:27:57;13.53;;;5.63;;
17604;SDS011;8921;50.964;6.800;2023-04-25T03:30:25;13.03;;;7.10;;
17604;SDS011;8921;50.964;6.800;2023-04-25T03:32:54;12.17;;;5.57;;
17604;SDS011;8921;50.964;6.800;2023-04-25T03:35:22;14.20;;;5.93;;
17604;SDS011;8921;50.964;6.800;2023-04-25T03:37:50;12.20;;;6.47;;
17604;SDS011;8921;50.964;6.800;2023-04-25T03:40:19;17.60;;;6.20;;
17604;SDS011;8921;50.964;6.800;2023-04-25T03:42:47;13.73;;;6.00;;
17604;SDS011;8921;50.964;6.800;2023-04-25T03:45:15;14.50;;;7.80;;
17604;SDS011;8921;50.964;6.800;2023-04-25T03:47:44;16.93;;;6.70;;
17604;SDS011;8921;50.964;6.800;2023-04-25T03:50:12;11.77;;;6.50;;
17604;SDS011;8921;50.964;6.800;2023-04-25T03:52:40;14.87;;;6.50;;
17604;SDS011;8921;50.964;6.800;2023-04-25T03:55:09;12.87;;;6.27;;
17604;SDS011;8921;50.964;6.800;2023-04-25T03:57:37;14.10;;;7.30;;
17604;SDS011;8921;50.964;6.800;2023-04-25T04:00:05;13.30;;;6.90;;
17604;SDS011;8921;50.964;6.800;2023-04-25T04:02:34;16.70;;;6.97;;
17604;SDS011;8921;50.964;6.800;2023-04-25T04:05:03;20.70;;;7.20;;
17604;SDS011;8921;50.964;6.800;2023-04-25T04:07:30;19.50;;;6.60;;
17604;SDS011;8921;50.964;6.800;2023-04-25T04:09:59;24.50;;;7.63;;
17604;SDS011;8921;50.964;6.800;2023-04-25T04:12:27;12.07;;;6.10;;
17604;SDS011;8921;50.964;6.800;2023-04-25T04:14:55;14.50;;;6.53;;
17604;SDS011;8921;50.964;6.800;2023-04-25T04:17:24;12.43;;;6.70;;
17604;SDS011;8921;50.964;6.800;2023-04-25T04:19:52;24.97;;;7.10;;
17604;SDS011;8921;50.964;6.800;2023-04-25T04:22:20;19.73;;;6.93;;
17604;SDS011;8921;50.964;6.800;2023-04-25T04:24:48;18.57;;;6.30;;
17604;SDS011;8921;50.964;6.800;2023-04-25T04:27:17;12.57;;;6.87;;
17604;SDS011;8921;50.964;6.800;2023-04-25T04:29:45;18.30;;;6.70;;
17604;SDS011;8921;50.964;6.800;2023-04-25T04:32:14;15.90;;;6.57;;
17604;SDS011;8921;50.964;6.800;2023-04-25T04:34:42;15.50;;;6.67;;
17604;SDS011;8921;50.964;6.800;2023-04-25T04:37:10;10.37;;;5.40;;
17604;SDS011;8921;50.964;6.800;2023-04-25T04:39:38;11.40;;;6.03;;
17604;SDS011;8921;50.964;6.800;2023-04-25T04:42:07;10.40;;;5.70;;
17604;SDS011;8921;50.964;6.800;2023-04-25T04:44:35;19.30;;;7.57;;
17604;SDS011;8921;50.964;6.800;2023-04-25T04:47:03;17.23;;;6.30;;
17604;SDS011;8921;50.964;6.800;2023-04-25T04:49:32;17.77;;;7.57;;
17604;SDS011;8921;50.964;6.800;2023-04-25T04:52:01;14.93;;;7.10;;
17604;SDS011;8921;50.964;6.800;2023-04-25T04:54:29;14.03;;;6.20;;
17604;SDS011;8921;50.964;6.800;2023-04-25T04:56:57;22.73;;;7.90;;
17604;SDS011;8921;50.964;6.800;2023-04-25T04:59:25;16.73;;;7.00;;
17604;SDS011;8921;50.964;6.800;2023-04-25T05:01:54;12.33;;;5.47;;
17604;SDS011;8921;50.964;6.800;2023-04-25T05:04:22;15.57;;;6.43;;
17604;SDS011;8921;50.964;6.800;2023-04-25T05:06:50;17.97;;;7.20;;
17604;SDS011;8921;50.964;6.800;2023-04-25T05:09:19;21.23;;;6.83;;
17604;SDS011;8921;50.964;6.800;2023-04-25T05:11:47;17.47;;;7.10;;
17604;SDS011;8921;50.964;6.800;2023-04-25T05:14:15;20.40;;;8.37;;
17604;SDS011;8921;50.964;6.800;2023-04-25T05:16:43;20.53;;;7.47;;
17604;SDS011;8921;50.964;6.800;2023-04-25T05:19:12;19.43;;;6.20;;
17604;SDS011;8921;50.964;6.800;2023-04-25T05:21:40;17.10;;;5.93;;
17604;SDS011;8921;50.964;6.800;2023-04-25T05:24:08;18.33;;;6.40;;
17604;SDS011;8921;50.964;6.800;2023-04-25T05:26:37;14.30;;;6.43;;
17604;SDS011;8921;50.964;6.800;2023-04-25T05:29:05;17.90;;;7.70;;
17604;SDS011;8921;50.964;6.800;2023-04-25T05:31:34;18.93;;;6.97;;
17604;SDS011;8921;50.964;6.800;2023-04-25T05:34:02;18.30;;;7.47;;
17604;SDS011;8921;50.964;6.800;2023-04-25T05:36:30;22.67;;;8.07;;
17604;SDS011;8921;50.964;6.800;2023-04-25T05:38:58;21.07;;;6.60;;
17604;SDS011;8921;50.964;6.800;2023-04-25T05:41:26;19.70;;;5.90;;
17604;SDS011;8921;50.964;6.800;2023-04-25T05:43:55;18.90;;;6.80;;
17604;SDS011;8921;50.964;6.800;2023-04-25T05:46:23;14.77;;;6.10;;
17604;SDS011;8921;50.964;6.800;2023-04-25T05:48:51;20.60;;;7.13;;
17604;SDS011;8921;50.964;6.800;2023-04-25T05:51:20;17.20;;;6.87;;
17604;SDS011;8921;50.964;6.800;2023-04-25T05:53:48;19.63;;;6.13;;
17604;SDS011;8921;50.964;6.800;2023-04-25T05:56:16;16.90;;;6.77;;
17604;SDS011;8921;50.964;6.800;2023-04-25T05:58:45;13.83;;;6.57;;
17604;SDS011;8921;50.964;6.800;2023-04-25T06:01:13;14.93;;;5.50;;
17604;SDS011;8921;50.964;6.800;2023-04-25T06:03:41;15.03;;;6.13;;
17604;SDS011;8921;50.964;6.800;2023-04-25T06:06:11;16.87;;;5.30;;
17604;SDS011;8921;50.964;6.800;2023-04-25T06:08:38;21.60;;;5.53;;
17604;SDS011;8921;50.964;6.800;2023-04-25T06:11:06;17.03;;;5.73;;
17604;SDS011;8921;50.964;6.800;2023-04-25T06:13:34;11.77;;;5.73;;
17604;SDS011;8921;50.964;6.800;2023-04-25T06:16:03;22.30;;;5.63;;
17604;SDS011;8921;50.964;6.800;2023-04-25T06:18:31;17.73;;;6.07;;
17604;SDS011;8921;50.964;6.800;2023-04-25T06:20:59;19.60;;;6.03;;
17604;SDS011;8921;50.964;6.800;2023-04-25T06:23:28;19.27;;;5.40;;
17604;SDS011;8921;50.964;6.800;2023-04-25T06:25:56;38.40;;;11.97;;
17604;SDS011;8921;50.964;6.800;2023-04-25T06:28:24;14.93;;;4.53;;
17604;SDS011;8921;50.964;6.800;2023-04-25T06:30:53;17.70;;;5.30;;
17604;SDS011;8921;50.964;6.800;2023-04-25T06:33:21;13.57;;;4.70;;
17604;SDS011;8921;50.964;6.800;2023-04-25T06:35:49;23.50;;;6.33;;
17604;SDS011;8921;50.964;6.800;2023-04-25T06:38:18;12.00;;;4.70;;
17604;SDS011;8921;50.964;6.800;2023-04-25T06:40:46;17.43;;;4.93;;
17604;SDS011;8921;50.964;6.800;2023-04-25T06:43:14;14.77;;;5.20;;
17604;SDS011;8921;50.964;6.800;2023-04-25T06:45:42;18.33;;;6.00;;
17604;SDS011;8921;50.964;6.800;2023-04-25T06:48:11;13.33;;;4.53;;
17604;SDS011;8921;50.964;6.800;2023-04-25T06:50:39;17.80;;;4.43;;
17604;SDS011;8921;50.964;6.800;2023-04-25T06:53:07;15.60;;;3.93;;
17604;SDS011;8921;50.964;6.800;2023-04-25T06:55:36;13.50;;;4.57;;
17604;SDS011;8921;50.964;6.800;2023-04-25T06:58:04;16.30;;;5.40;;
17604;SDS011;8921;50.964;6.800;2023-04-25T07:00:32;13.10;;;5.03;;
17604;SDS011;8921;50.964;6.800;2023-04-25T07:03:01;23.03;;;5.00;;
17604;SDS011;8921;50.964;6.800;2023-04-25T07:05:29;16.33;;;4.77;;
17604;SDS011;8921;50.964;6.800;2023-04-25T07:07:57;12.87;;;4.53;;
17604;SDS011;8921;50.964;6.800;2023-04-25T07:10:26;12.30;;;4.30;;
17604;SDS011;8921;50.964;6.800;2023-04-25T07:12:54;10.83;;;4.47;;
17604;SDS011;8921;50.964;6.800;2023-04-25T07:15:22;11.23;;;3.67;;
17604;SDS011;8921;50.964;6.800;2023-04-25T07:17:50;11.77;;;3.97;;
17604;SDS011;8921;50.964;6.800;2023-04-25T07:20:19;12.30;;;4.27;;
17604;SDS011;8921;50.964;6.800;2023-04-25T07:22:47;11.23;;;4.33;;
17604;SDS011;8921;50.964;6.800;2023-04-25T07:25:16;12.57;;;3.67;;
17604;SDS011;8921;50.964;6.800;2023-04-25T07:27:44;15.63;;;4.00;;
17604;SDS011;8921;50.964;6.800;2023-04-25T07:30:12;15.80;;;5.03;;
17604;SDS011;8921;50.964;6.800;2023-04-25T07:32:40;13.77;;;4.27;;
17604;SDS011;8921;50.964;6.800;2023-04-25T07:35:19;12.37;;;4.23;;
17604;SDS011;8921;50.964;6.800;2023-04-25T07:37:47;15.27;;;3.83;;
17604;SDS011;8921;50.964;6.800;2023-04-25T07:40:15;13.03;;;4.17;;
17604;SDS011;8921;50.964;6.800;2023-04-25T07:42:44;12.53;;;4.00;;
17604;SDS011;8921;50.964;6.800;2023-04-25T07:45:12;12.50;;;4.03;;
17604;SDS011;8921;50.964;6.800;2023-04-25T07:47:40;13.77;;;4.90;;
17604;SDS011;8921;50.964;6.800;2023-04-25T07:50:09;12.10;;;5.47;;
17604;SDS011;8921;50.964;6.800;2023-04-25T07:52:37;10.70;;;4.10;;
17604;SDS011;8921;50.964;6.800;2023-04-25T07:55:06;25.00;;;5.80;;
17604;SDS011;8921;50.964;6.800;2023-04-25T07:57:34;11.77;;;3.30;;
17604;SDS011;8921;50.964;6.800;2023-04-25T08:00:02;9.47;;;3.50;;
17604;SDS011;8921;50.964;6.800;2023-04-25T08:02:31;12.97;;;4.23;;
17604;SDS011;8921;50.964;6.800;2023-04-25T08:04:59;13.33;;;3.67;;
17604;SDS011;8921;50.964;6.800;2023-04-25T08:07:27;14.80;;;4.20;;
17604;SDS011;8921;50.964;6.800;2023-04-25T08:09:56;16.63;;;4.27;;
17604;SDS011;8921;50.964;6.800;2023-04-25T08:12:24;9.37;;;3.60;;
17604;SDS011;8921;50.964;6.800;2023-04-25T08:14:52;11.20;;;3.30;;
17604;SDS011;8921;50.964;6.800;2023-04-25T08:17:20;10.60;;;3.47;;
17604;SDS011;8921;50.964;6.800;2023-04-25T08:19:49;12.70;;;3.70;;
17604;SDS011;8921;50.964;6.800;2023-04-25T08:22:17;7.67;;;3.00;;
17604;SDS011;8921;50.964;6.800;2023-04-25T08:24:45;12.30;;;3.83;;
17604;SDS011;8921;50.964;6.800;2023-04-25T08:27:14;14.57;;;4.00;;
17604;SDS011;8921;50.964;6.800;2023-04-25T08:29:42;10.80;;;3.30;;
17604;SDS011;8921;50.964;6.800;2023-04-25T08:32:10;9.83;;;3.13;;
17604;SDS011;8921;50.964;6.800;2023-04-25T08:34:39;6.00;;;3.00;;
17604;SDS011;8921;50.964;6.800;2023-04-25T08:37:07;15.80;;;2.57;;
17604;SDS011;8921;50.964;6.800;2023-04-25T08:39:36;12.17;;;3.30;;
17604;SDS011;8921;50.964;6.800;2023-04-25T08:42:05;11.33;;;3.30;;
17604;SDS011;8921;50.964;6.800;2023-04-25T08:44:33;11.10;;;2.67;;
17604;SDS011;8921;50.964;6.800;2023-04-25T08:47:02;9.23;;;2.67;;
17604;SDS011;8921;50.964;6.800;2023-04-25T08:49:29;8.37;;;2.40;;
17604;SDS011;8921;50.964;6.800;2023-04-25T08:51:58;8.77;;;3.17;;
17604;SDS011;8921;50.964;6.800;2023-04-25T08:54:25;7.00;;;2.53;;
17604;SDS011;8921;50.964;6.800;2023-04-25T08:56:54;8.73;;;3.10;;
17604;SDS011;8921;50.964;6.800;2023-04-25T08:59:22;14.30;;;3.40;;
17604;SDS011;8921;50.964;6.800;2023-04-25T09:01:50;10.60;;;3.10;;
17604;SDS011;8921;50.964;6.800;2023-04-25T09:04:18;11.00;;;3.07;;
17604;SDS011;8921;50.964;6.800;2023-04-25T09:06:47;15.13;;;3.10;;
17604;SDS011;8921;50.964;6.800;2023-04-25T09:09:15;12.50;;;3.90;;
17604;SDS011;8921;50.964;6.800;2023-04-25T09:11:43;14.73;;;6.80;;
17604;SDS011;8921;50.964;6.800;2023-04-25T09:14:16;13.10;;;3.30;;
17604;SDS011;8921;50.964;6.800;2023-04-25T09:19:24;9.40;;;3.30;;
17604;SDS011;8921;50.964;6.800;2023-04-25T09:21:55;16.77;;;3.77;;
17604;SDS011;8921;50.964;6.800;2023-04-25T09:24:43;12.17;;;3.10;;
17604;SDS011;8921;50.964;6.800;2023-04-25T09:27:17;19.07;;;3.73;;
17604;SDS011;8921;50.964;6.800;2023-04-25T09:29:40;7.57;;;3.10;;
17604;SDS011;8921;50.964;6.800;2023-04-25T09:32:21;8.60;;;3.10;;
17604;SDS011;8921;50.964;6.800;2023-04-25T09:34:52;14.97;;;3.67;;
17604;SDS011;8921;50.964;6.800;2023-04-25T09:37:21;8.63;;;2.80;;
17604;SDS011;8921;50.964;6.800;2023-04-25T09:39:57;10.73;;;3.23;;
17604;SDS011;8921;50.964;6.800;2023-04-25T09:42:26;8.60;;;3.40;;
17604;SDS011;8921;50.964;6.800;2023-04-25T09:44:54;9.40;;;3.40;;
17604;SDS011;8921;50.964;6.800;2023-04-25T09:47:23;6.90;;;2.50;;
17604;SDS011;8921;50.964;6.800;2023-04-25T09:49:50;10.50;;;2.73;;
17604;SDS011;8921;50.964;6.800;2023-04-25T09:52:19;10.77;;;3.37;;
17604;SDS011;8921;50.964;6.800;2023-04-25T09:54:47;14.07;;;2.90;;
17604;SDS011;8921;50.964;6.800;2023-04-25T09:57:16;18.93;;;5.10;;
17604;SDS011;8921;50.964;6.800;2023-04-25T09:59:44;10.07;;;3.00;;
17604;SDS011;8921;50.964;6.800;2023-04-25T10:02:24;12.17;;;3.63;;
17604;SDS011;8921;50.964;6.800;2023-04-25T10:04:49;9.10;;;2.83;;
17604;SDS011;8921;50.964;6.800;2023-04-25T10:07:17;10.57;;;3.60;;
17604;SDS011;8921;50.964;6.800;2023-04-25T10:09:47;15.30;;;2.97;;
17604;SDS011;8921;50.964;6.800;2023-04-25T10:12:14;12.23;;;4.27;;
17604;SDS011;8921;50.964;6.800;2023-04-25T10:14:42;13.90;;;4.20;;
17604;SDS011;8921;50.964;6.800;2023-04-25T10:17:10;10.47;;;2.53;;
17604;SDS011;8921;50.964;6.800;2023-04-25T10:19:38;14.70;;;2.87;;
17604;SDS011;8921;50.964;6.800;2023-04-25T10:22:07;9.90;;;3.30;;
17604;SDS011;8921;50.964;6.800;2023-04-25T10:24:35;11.30;;;3.20;;
17604;SDS011;8921;50.964;6.800;2023-04-25T10:27:04;13.83;;;2.80;;
17604;SDS011;8921;50.964;6.800;2023-04-25T10:29:32;7.73;;;2.80;;
17604;SDS011;8921;50.964;6.800;2023-04-25T10:32:00;12.93;;;3.47;;
17604;SDS011;8921;50.964;6.800;2023-04-25T10:34:38;7.53;;;2.77;;
17604;SDS011;8921;50.964;6.800;2023-04-25T10:37:09;10.27;;;2.80;;
17604;SDS011;8921;50.964;6.800;2023-04-25T10:39:38;7.03;;;2.80;;
17604;SDS011;8921;50.964;6.800;2023-04-25T10:42:05;14.17;;;3.20;;
17604;SDS011;8921;50.964;6.800;2023-04-25T10:44:34;11.67;;;3.40;;
17604;SDS011;8921;50.964;6.800;2023-04-25T10:47:02;12.23;;;4.07;;
17604;SDS011;8921;50.964;6.800;2023-04-25T10:49:34;10.80;;;4.27;;
17604;SDS011;8921;50.964;6.800;2023-04-25T10:52:17;9.43;;;3.10;;
17604;SDS011;8921;50.964;6.800;2023-04-25T10:54:48;13.90;;;2.70;;
17604;SDS011;8921;50.964;6.800;2023-04-25T11:00:04;11.00;;;2.73;;
17604;SDS011;8921;50.964;6.800;2023-04-25T11:02:36;7.50;;;2.90;;
17604;SDS011;8921;50.964;6.800;2023-04-25T11:05:02;7.20;;;2.90;;
17604;SDS011;8921;50.964;6.800;2023-04-25T11:07:38;5.70;;;2.30;;
17604;SDS011;8921;50.964;6.800;2023-04-25T11:10:04;7.90;;;1.93;;
17604;SDS011;8921;50.964;6.800;2023-04-25T11:12:32;8.80;;;2.70;;
17604;SDS011;8921;50.964;6.800;2023-04-25T11:15:02;8.40;;;2.90;;
17604;SDS011;8921;50.964;6.800;2023-04-25T11:17:29;6.70;;;2.80;;
17604;SDS011;8921;50.964;6.800;2023-04-25T11:19:57;11.03;;;2.60;;
17604;SDS011;8921;50.964;6.800;2023-04-25T11:22:26;12.50;;;2.97;;
17604;SDS011;8921;50.964;6.800;2023-04-25T11:24:54;6.83;;;2.33;;
17604;SDS011;8921;50.964;6.800;2023-04-25T11:27:22;13.23;;;3.23;;
17604;SDS011;8921;50.964;6.800;2023-04-25T11:29:51;7.23;;;3.20;;
17604;SDS011;8921;50.964;6.800;2023-04-25T11:32:20;6.20;;;2.10;;
17604;SDS011;8921;50.964;6.800;2023-04-25T11:34:47;7.40;;;2.77;;
17604;SDS011;8921;50.964;6.800;2023-04-25T11:37:16;8.53;;;2.87;;
17604;SDS011;8921;50.964;6.800;2023-04-25T11:39:44;5.63;;;1.90;;
17604;SDS011;8921;50.964;6.800;2023-04-25T11:42:12;6.90;;;2.33;;
17604;SDS011;8921;50.964;6.800;2023-04-25T11:44:40;13.13;;;2.10;;
17604;SDS011;8921;50.964;6.800;2023-04-25T11:47:09;5.30;;;1.77;;
17604;SDS011;8921;50.964;6.800;2023-04-25T11:49:37;8.43;;;2.33;;
17604;SDS011;8921;50.964;6.800;2023-04-25T11:52:06;6.30;;;1.87;;
17604;SDS011;8921;50.964;6.800;2023-04-25T11:54:37;10.80;;;2.67;;
17604;SDS011;8921;50.964;6.800;2023-04-25T11:57:05;7.77;;;2.20;;
17604;SDS011;8921;50.964;6.800;2023-04-25T11:59:33;9.47;;;2.73;;
17604;SDS011;8921;50.964;6.800;2023-04-25T12:02:01;6.87;;;2.57;;
17604;SDS011;8921;50.964;6.800;2023-04-25T12:04:30;5.47;;;2.50;;
17604;SDS011;8921;50.964;6.800;2023-04-25T12:06:58;10.10;;;2.30;;
17604;SDS011;8921;50.964;6.800;2023-04-25T12:09:30;7.13;;;2.50;;
17604;SDS011;8921;50.964;6.800;2023-04-25T12:11:57;9.03;;;2.47;;
17604;SDS011;8921;50.964;6.800;2023-04-25T12:14:29;11.77;;;2.50;;
17604;SDS011;8921;50.964;6.800;2023-04-25T12:16:57;7.00;;;2.30;;
17604;SDS011;8921;50.964;6.800;2023-04-25T12:19:25;8.00;;;2.87;;
17604;SDS011;8921;50.964;6.800;2023-04-25T12:21:53;8.73;;;4.37;;
17604;SDS011;8921;50.964;6.800;2023-04-25T12:24:22;5.60;;;2.23;;
17604;SDS011;8921;50.964;6.800;2023-04-25T12:26:50;8.00;;;2.70;;
17604;SDS011;8921;50.964;6.800;2023-04-25T12:29:30;5.83;;;2.07;;
17604;SDS011;8921;50.964;6.800;2023-04-25T12:31:58;10.83;;;3.30;;
17604;SDS011;8921;50.964;6.800;2023-04-25T12:34:26;7.40;;;2.77;;
17604;SDS011;8921;50.964;6.800;2023-04-25T12:36:54;16.80;;;2.80;;
17604;SDS011;8921;50.964;6.800;2023-04-25T12:39:23;6.03;;;2.00;;
17604;SDS011;8921;50.964;6.800;2023-04-25T12:41:51;5.67;;;2.30;;
17604;SDS011;8921;50.964;6.800;2023-04-25T12:44:22;10.10;;;2.60;;
17604;SDS011;8921;50.964;6.800;2023-04-25T12:46:50;7.10;;;2.80;;
17604;SDS011;8921;50.964;6.800;2023-04-25T12:49:18;6.60;;;2.90;;
17604;SDS011;8921;50.964;6.800;2023-04-25T12:51:47;5.80;;;2.17;;
17604;SDS011;8921;50.964;6.800;2023-04-25T12:54:15;7.63;;;2.50;;
17604;SDS011;8921;50.964;6.800;2023-04-25T12:56:43;7.30;;;3.13;;
17604;SDS011;8921;50.964;6.800;2023-04-25T12:59:11;8.20;;;2.27;;
17604;SDS011;8921;50.964;6.800;2023-04-25T13:01:40;6.10;;;1.77;;
17604;SDS011;8921;50.964;6.800;2023-04-25T13:04:08;7.97;;;2.57;;
17604;SDS011;8921;50.964;6.800;2023-04-25T13:06:36;6.63;;;2.40;;
17604;SDS011;8921;50.964;6.800;2023-04-25T13:09:05;6.60;;;2.00;;
17604;SDS011;8921;50.964;6.800;2023-04-25T13:11:33;5.90;;;2.20;;
17604;SDS011;8921;50.964;6.800;2023-04-25T13:14:01;7.77;;;2.07;;
17604;SDS011;8921;50.964;6.800;2023-04-25T13:16:30;5.10;;;1.90;;
17604;SDS011;8921;50.964;6.800;2023-04-25T13:18:58;6.10;;;2.00;;
17604;SDS011;8921;50.964;6.800;2023-04-25T13:21:26;5.57;;;2.27;;
17604;SDS011;8921;50.964;6.800;2023-04-25T13:23:54;6.57;;;2.10;;
17604;SDS011;8921;50.964;6.800;2023-04-25T13:26:23;10.13;;;2.37;;
17604;SDS011;8921;50.964;6.800;2023-04-25T13:28:51;7.20;;;3.33;;
17604;SDS011;8921;50.964;6.800;2023-04-25T13:31:19;7.37;;;2.83;;
17604;SDS011;8921;50.964;6.800;2023-04-25T13:33:48;5.77;;;2.50;;
17604;SDS011;8921;50.964;6.800;2023-04-25T13:36:16;10.77;;;2.57;;
17604;SDS011;8921;50.964;6.800;2023-04-25T13:38:44;10.57;;;2.23;;
17604;SDS011;8921;50.964;6.800;2023-04-25T13:41:13;4.40;;;1.73;;
17604;SDS011;8921;50.964;6.800;2023-04-25T13:43:41;6.10;;;1.93;;
17604;SDS011;8921;50.964;6.800;2023-04-25T13:46:09;4.23;;;2.00;;
17604;SDS011;8921;50.964;6.800;2023-04-25T13:48:37;5.10;;;1.50;;
17604;SDS011;8921;50.964;6.800;2023-04-25T13:51:06;6.50;;;1.97;;
17604;SDS011;8921;50.964;6.800;2023-04-25T13:53:34;7.00;;;2.10;;
17604;SDS011;8921;50.964;6.800;2023-04-25T13:56:02;6.10;;;1.90;;
17604;SDS011;8921;50.964;6.800;2023-04-25T13:58:31;4.20;;;1.60;;
17604;SDS011;8921;50.964;6.800;2023-04-25T14:00:59;5.87;;;1.60;;
17604;SDS011;8921;50.964;6.800;2023-04-25T14:03:27;6.83;;;1.73;;
17604;SDS011;8921;50.964;6.800;2023-04-25T14:05:56;7.63;;;2.40;;
17604;SDS011;8921;50.964;6.800;2023-04-25T14:08:24;5.43;;;1.80;;
17604;SDS011;8921;50.964;6.800;2023-04-25T14:10:52;4.40;;;1.37;;
17604;SDS011;8921;50.964;6.800;2023-04-25T14:13:21;6.63;;;1.43;;
17604;SDS011;8921;50.964;6.800;2023-04-25T14:15:49;4.80;;;1.50;;
17604;SDS011;8921;50.964;6.800;2023-04-25T14:18:18;5.80;;;1.50;;
17604;SDS011;8921;50.964;6.800;2023-04-25T14:20:46;8.50;;;1.80;;
17604;SDS011;8921;50.964;6.800;2023-04-25T14:23:14;6.20;;;1.70;;
17604;SDS011;8921;50.964;6.800;2023-04-25T14:25:43;4.20;;;1.50;;
17604;SDS011;8921;50.964;6.800;2023-04-25T14:28:11;6.60;;;2.10;;
17604;SDS011;8921;50.964;6.800;2023-04-25T14:30:39;7.60;;;1.80;;
17604;SDS011;8921;50.964;6.800;2023-04-25T14:33:07;7.80;;;1.67;;
17604;SDS011;8921;50.964;6.800;2023-04-25T14:35:36;7.90;;;2.00;;
17604;SDS011;8921;50.964;6.800;2023-04-25T14:38:04;5.10;;;1.37;;
17604;SDS011;8921;50.964;6.800;2023-04-25T14:40:32;5.73;;;2.27;;
17604;SDS011;8921;50.964;6.800;2023-04-25T14:43:01;11.47;;;2.37;;
17604;SDS011;8921;50.964;6.800;2023-04-25T14:45:29;9.07;;;1.47;;
17604;SDS011;8921;50.964;6.800;2023-04-25T14:47:57;5.10;;;1.90;;
17604;SDS011;8921;50.964;6.800;2023-04-25T14:50:26;6.50;;;2.50;;
17604;SDS011;8921;50.964;6.800;2023-04-25T14:52:54;5.90;;;2.20;;
17604;SDS011;8921;50.964;6.800;2023-04-25T14:55:25;8.60;;;2.30;;
17604;SDS011;8921;50.964;6.800;2023-04-25T14:57:53;9.00;;;2.20;;
17604;SDS011;8921;50.964;6.800;2023-04-25T15:00:21;4.53;;;2.07;;
17604;SDS011;8921;50.964;6.800;2023-04-25T15:02:50;6.73;;;2.60;;
17604;SDS011;8921;50.964;6.800;2023-04-25T15:05:18;6.00;;;2.00;;